Time;durP1;ratioP1;P1;durP2;ratioP2;P2;SDS_P1;SDS_P2;PMS_P1;PMS_P2;Temp;Humidity;BMP_temperature;BMP_pressure;BME280_temperature;BME280_humidity;BME280_pressure;Samples;Min_cycle;Max_cycle;Signal;HPM_P1;HPM_P2
2023/11/12 00:01:39;;;;;;;4.50;4.10;;;4.60;99.90;;;;;;4992295;28;20215;-59
2023/11/12 00:04:06;;;;;;;4.93;4.50;;;4.60;99.90;;;;;;4987297;28;20200;-59
2023/11/12 00:06:33;;;;;;;4.67;4.37;;;4.50;99.90;;;;;;4991917;28;20273;-59
2023/11/12 00:09:04;;;;;;;5.07;4.77;;;4.50;99.90;;;;;;4992851;28;20233;-59
2023/11/12 00:11:36;;;;;;;5.57;4.40;;;4.40;99.90;;;;;;4992572;28;20245;-59
2023/11/12 00:14:03;;;;;;;6.07;5.13;;;4.50;99.90;;;;;;4991485;28;20205;-59
2023/11/12 00:16:32;;;;;;;5.97;5.47;;;4.50;99.90;;;;;;4991269;28;20268;-59
2023/11/12 00:19:04;;;;;;;4.13;3.73;;;4.40;99.90;;;;;;4992246;28;20229;-59
2023/11/12 00:21:31;;;;;;;5.83;5.43;;;4.30;99.90;;;;;;4992454;28;20209;-59
2023/11/12 00:23:58;;;;;;;4.03;3.73;;;4.30;99.90;;;;;;4991393;28;20748;-59
2023/11/12 00:26:28;;;;;;;5.27;4.50;;;4.20;99.90;;;;;;4991866;28;20252;-59
2023/11/12 00:28:57;;;;;;;5.50;5.07;;;4.10;99.90;;;;;;4992396;28;20216;-59
2023/11/12 00:31:24;;;;;;;4.70;4.40;;;4.10;99.90;;;;;;4984492;28;20236;-60
2023/11/12 00:33:51;;;;;;;5.87;5.37;;;4.10;99.90;;;;;;4990269;28;20668;-59
2023/11/12 00:36:18;;;;;;;5.97;5.47;;;4.10;99.90;;;;;;4992157;28;20218;-59
2023/11/12 00:38:45;;;;;;;5.40;4.97;;;4.10;99.90;;;;;;4992612;28;20245;-58
2023/11/12 00:41:12;;;;;;;5.43;4.70;;;4.10;99.90;;;;;;4992217;28;20246;-59
2023/11/12 00:43:40;;;;;;;5.93;5.47;;;4.10;99.90;;;;;;4991016;28;20241;-59
2023/11/12 00:46:09;;;;;;;5.30;4.67;;;4.20;99.90;;;;;;4991007;28;20227;-59
2023/11/12 00:48:35;;;;;;;4.80;4.50;;;4.00;99.90;;;;;;4992169;28;20213;-59
2023/11/12 00:51:03;;;;;;;5.00;4.60;;;4.00;99.90;;;;;;4991980;28;20594;-59
2023/11/12 00:53:30;;;;;;;4.60;4.20;;;4.10;99.90;;;;;;4991174;28;20224;-59
2023/11/12 00:55:59;;;;;;;3.90;3.60;;;3.90;99.90;;;;;;4991528;28;20197;-59
2023/11/12 00:58:26;;;;;;;3.87;3.57;;;4.10;99.90;;;;;;4992095;28;20213;-59
2023/11/12 01:00:53;;;;;;;4.10;3.90;;;4.00;99.90;;;;;;4985016;28;20241;-58
2023/11/12 01:03:22;;;;;;;4.57;3.47;;;4.00;99.90;;;;;;4991794;28;20235;-59
2023/11/12 01:05:52;;;;;;;4.50;3.87;;;4.00;99.90;;;;;;4990605;28;20202;-59
2023/11/12 01:08:19;;;;;;;3.90;3.60;;;4.00;99.90;;;;;;4992221;28;20197;-59
2023/11/12 01:10:46;;;;;;;4.47;4.03;;;4.00;99.90;;;;;;4995488;28;20210;-59
2023/11/12 01:13:13;;;;;;;5.17;4.67;;;4.00;99.90;;;;;;4994470;28;20600;-59
2023/11/12 01:15:42;;;;;;;4.40;4.10;;;4.00;99.90;;;;;;4986671;28;20692;-59
2023/11/12 01:18:09;;;;;;;4.43;4.03;;;4.10;99.90;;;;;;4992294;28;20667;-59
2023/11/12 01:20:37;;;;;;;5.30;4.63;;;4.10;99.90;;;;;;4995187;28;20626;-59
2023/11/12 01:23:04;;;;;;;3.67;3.37;;;4.00;99.90;;;;;;4988318;28;20225;-59
2023/11/12 01:25:32;;;;;;;3.33;3.13;;;4.00;99.90;;;;;;4985752;28;20263;-59
2023/11/12 01:27:59;;;;;;;4.07;3.77;;;3.90;99.90;;;;;;4986198;28;20771;-59
2023/11/12 01:30:27;;;;;;;3.77;3.57;;;3.90;99.90;;;;;;4994740;28;20237;-59
2023/11/12 01:32:54;;;;;;;4.47;3.47;;;3.80;99.90;;;;;;4994662;28;20269;-59
2023/11/12 01:35:21;;;;;;;3.63;3.33;;;3.80;99.90;;;;;;4994633;28;20204;-58
2023/11/12 01:37:49;;;;;;;3.83;3.53;;;3.70;99.90;;;;;;4995246;28;20291;-59
2023/11/12 01:40:17;;;;;;;4.30;4.00;;;3.80;99.90;;;;;;4995001;28;20206;-60
2023/11/12 01:42:44;;;;;;;3.37;3.17;;;3.70;99.90;;;;;;4985957;28;20230;-59
2023/11/12 01:45:12;;;;;;;3.00;2.80;;;3.70;99.90;;;;;;4993642;28;20230;-59
2023/11/12 01:47:40;;;;;;;3.50;3.30;;;3.60;99.90;;;;;;4994123;28;20229;-59
2023/11/12 01:50:09;;;;;;;2.97;2.80;;;3.60;99.90;;;;;;4994955;28;20229;-59
2023/11/12 01:52:39;;;;;;;2.87;2.67;;;3.60;99.90;;;;;;4994805;28;20223;-58
2023/11/12 01:55:09;;;;;;;3.90;3.60;;;3.50;99.90;;;;;;4993201;28;20204;-59
2023/11/12 01:57:37;;;;;;;3.80;3.50;;;3.50;99.90;;;;;;4994750;28;20233;-59
2023/11/12 02:00:10;;;;;;;2.70;2.60;;;3.50;99.90;;;;;;4994706;28;20750;-59
2023/11/12 02:02:38;;;;;;;3.40;3.20;;;3.50;99.90;;;;;;4994639;28;20608;-59
2023/11/12 02:05:08;;;;;;;3.70;3.40;;;3.40;99.90;;;;;;4994312;28;20205;-59
2023/11/12 02:07:37;;;;;;;3.63;3.43;;;3.20;99.90;;;;;;4992592;28;20296;-59
2023/11/12 02:10:09;;;;;;;3.37;3.07;;;3.30;99.90;;;;;;4994593;28;20285;-59
2023/11/12 02:12:38;;;;;;;3.03;2.83;;;3.30;99.90;;;;;;4994596;28;20264;-59
2023/11/12 02:15:06;;;;;;;3.00;2.80;;;3.40;99.90;;;;;;4994195;28;20265;-58
2023/11/12 02:17:33;;;;;;;3.07;2.87;;;3.40;99.90;;;;;;4994333;28;20620;-59
2023/11/12 02:20:05;;;;;;;3.10;2.77;;;3.30;99.90;;;;;;4993515;28;20206;-59
2023/11/12 02:22:33;;;;;;;1.93;1.83;;;3.30;99.90;;;;;;4992593;28;20269;-59
2023/11/12 02:25:01;;;;;;;2.23;2.13;;;3.10;99.90;;;;;;4994054;28;20370;-59
2023/11/12 02:27:28;;;;;;;2.00;1.97;;;3.20;99.90;;;;;;4993864;28;20252;-59
2023/11/12 02:29:55;;;;;;;2.30;2.20;;;3.20;99.90;;;;;;4985045;28;20214;-59
2023/11/12 02:32:22;;;;;;;2.50;2.30;;;3.80;99.90;;;;;;4993279;28;20308;-58
2023/11/12 02:34:49;;;;;;;2.37;2.10;;;3.10;99.90;;;;;;4993669;28;20812;-59
2023/11/12 02:37:16;;;;;;;3.50;2.53;;;3.10;99.90;;;;;;4994393;28;20209;-59
2023/11/12 02:39:43;;;;;;;1.90;1.63;;;2.60;99.90;;;;;;4993968;28;20682;-59
2023/11/12 02:42:12;;;;;;;2.40;2.20;;;3.10;99.90;;;;;;4993141;28;20226;-59
2023/11/12 02:44:39;;;;;;;1.87;1.70;;;3.10;99.90;;;;;;4992741;28;20212;-59
2023/11/12 02:47:07;;;;;;;2.27;2.17;;;3.20;99.90;;;;;;4990793;28;20249;-59
2023/11/12 02:49:48;;;;;;;2.10;1.90;;;3.20;99.90;;;;;;4993811;28;20206;-59
2023/11/12 02:52:15;;;;;;;2.13;1.93;;;3.00;99.90;;;;;;4974289;28;20796;-59
2023/11/12 02:54:42;;;;;;;1.70;1.60;;;3.10;99.90;;;;;;4974053;28;20247;-59
2023/11/12 02:57:09;;;;;;;1.77;1.67;;;3.10;99.90;;;;;;4982887;28;20199;-58
2023/11/12 02:59:37;;;;;;;2.10;1.90;;;3.20;99.90;;;;;;4992914;28;20210;-59
2023/11/12 03:02:05;;;;;;;3.93;1.97;;;3.30;99.90;;;;;;4992483;28;20717;-59
2023/11/12 03:04:32;;;;;;;2.07;1.97;;;3.20;99.90;;;;;;4993165;28;20210;-59
2023/11/12 03:06:58;;;;;;;2.90;2.00;;;3.20;99.90;;;;;;4993535;28;20217;-59
2023/11/12 03:09:26;;;;;;;1.30;1.30;;;3.20;99.90;;;;;;4992930;28;20217;-59
2023/11/12 03:11:53;;;;;;;2.20;2.10;;;3.10;99.90;;;;;;4991888;28;20226;-59
2023/11/12 03:14:21;;;;;;;2.03;1.93;;;3.10;99.90;;;;;;4993215;28;20208;-59
2023/11/12 03:16:50;;;;;;;2.53;2.00;;;3.00;99.90;;;;;;4993307;28;20631;-59
2023/11/12 03:19:16;;;;;;;1.90;1.80;;;3.20;99.90;;;;;;4993340;28;20244;-59
2023/11/12 03:21:49;;;;;;;1.83;1.73;;;3.10;99.90;;;;;;4992194;28;20250;-59
2023/11/12 03:24:16;;;;;;;2.20;2.10;;;3.20;99.90;;;;;;4991586;28;20281;-59
2023/11/12 03:26:42;;;;;;;1.40;1.30;;;3.10;99.90;;;;;;4991579;28;20202;-59
2023/11/12 03:29:09;;;;;;;2.83;2.63;;;3.00;99.90;;;;;;4993102;28;20210;-59
2023/11/12 03:31:36;;;;;;;2.17;2.07;;;3.00;99.90;;;;;;4992635;28;20233;-59
2023/11/12 03:34:05;;;;;;;2.03;1.93;;;2.90;99.90;;;;;;4992915;28;20681;-59
2023/11/12 03:36:35;;;;;;;2.53;2.33;;;2.60;99.90;;;;;;4992116;28;20205;-59
2023/11/12 03:39:02;;;;;;;2.17;2.03;;;3.00;99.90;;;;;;4984717;28;20288;-59
2023/11/12 03:41:32;;;;;;;4.57;4.07;;;2.90;99.90;;;;;;4992530;28;20675;-59
2023/11/12 03:43:59;;;;;;;2.57;2.37;;;2.80;99.90;;;;;;4987838;28;20235;-59
2023/11/12 03:46:25;;;;;;;2.73;2.50;;;2.80;99.90;;;;;;4982638;28;20225;-59
2023/11/12 03:48:52;;;;;;;4.87;2.30;;;2.80;99.90;;;;;;4983352;28;20232;-59
2023/11/12 03:51:21;;;;;;;2.27;2.00;;;2.70;99.90;;;;;;4984304;28;20234;-59
2023/11/12 03:53:47;;;;;;;1.60;1.50;;;2.60;99.90;;;;;;4989551;28;20628;-59
2023/11/12 03:56:14;;;;;;;2.80;1.80;;;2.70;99.90;;;;;;4980886;28;20234;-59
2023/11/12 03:58:41;;;;;;;1.63;1.20;;;2.70;99.90;;;;;;4973449;28;20208;-59
2023/11/12 04:01:08;;;;;;;1.40;1.30;;;2.70;99.90;;;;;;4974127;28;20230;-58
2023/11/12 04:03:35;;;;;;;0.87;0.87;;;2.70;99.90;;;;;;5003347;23;20262;-55
2023/11/12 04:06:02;;;;;;;1.37;1.30;;;2.70;99.90;;;;;;4959370;28;20206;-56
2023/11/12 04:08:30;;;;;;;2.20;1.40;;;2.70;99.90;;;;;;4964704;28;20226;-55
2023/11/12 04:10:57;;;;;;;2.40;1.40;;;2.70;99.90;;;;;;4960521;28;20650;-56
2023/11/12 04:13:24;;;;;;;2.97;1.97;;;1.90;99.90;;;;;;4966836;28;20231;-55
2023/11/12 04:15:51;;;;;;;2.10;2.00;;;2.60;99.90;;;;;;4971652;28;20705;-55
2023/11/12 04:18:18;;;;;;;4.77;3.67;;;2.50;99.90;;;;;;4972021;28;20195;-55
2023/11/12 04:20:45;;;;;;;2.93;2.50;;;2.60;99.90;;;;;;4970128;28;20837;-57
2023/11/12 04:23:12;;;;;;;4.10;2.73;;;2.60;99.90;;;;;;4984941;28;20221;-57
2023/11/12 04:25:42;;;;;;;4.17;3.50;;;2.50;99.90;;;;;;4986657;28;20202;-56
2023/11/12 04:28:08;;;;;;;2.87;2.67;;;2.50;99.90;;;;;;4994276;28;20227;-56
2023/11/12 04:30:35;;;;;;;4.63;2.90;;;2.50;99.90;;;;;;4972510;28;20210;-55
2023/11/12 04:33:02;;;;;;;1.87;1.77;;;2.50;99.90;;;;;;4973169;28;20586;-55
2023/11/12 04:35:29;;;;;;;3.13;2.40;;;2.40;99.90;;;;;;4971616;28;20270;-55
2023/11/12 04:37:57;;;;;;;3.17;2.67;;;2.50;99.90;;;;;;4971549;28;20234;-56
2023/11/12 04:40:24;;;;;;;3.03;2.70;;;2.50;99.90;;;;;;4969980;28;20214;-56
2023/11/12 04:42:54;;;;;;;2.33;2.23;;;2.50;99.90;;;;;;4970149;28;20222;-57
2023/11/12 04:45:21;;;;;;;2.30;2.10;;;2.60;99.90;;;;;;4974949;28;20194;-55
2023/11/12 04:47:48;;;;;;;2.33;1.90;;;2.60;99.90;;;;;;4975509;28;20281;-55
2023/11/12 04:50:15;;;;;;;2.57;1.67;;;2.60;99.90;;;;;;4975697;28;20342;-55
2023/11/12 04:52:42;;;;;;;1.70;1.60;;;2.60;99.90;;;;;;4975348;28;20348;-55
2023/11/12 04:55:09;;;;;;;2.20;1.20;;;2.60;99.90;;;;;;4975263;28;20226;-55
2023/11/12 04:57:36;;;;;;;1.63;1.53;;;2.60;99.90;;;;;;4974656;28;20733;-55
2023/11/12 05:00:06;;;;;;;1.80;1.70;;;3.00;99.90;;;;;;4975328;28;20209;-55
2023/11/12 05:02:34;;;;;;;2.77;2.53;;;2.70;99.90;;;;;;4975129;28;20262;-55
2023/11/12 05:05:01;;;;;;;2.60;2.40;;;2.70;99.90;;;;;;4974862;28;20294;-55
2023/11/12 05:07:28;;;;;;;3.33;3.03;;;3.20;99.90;;;;;;4973575;28;20276;-55
2023/11/12 05:09:55;;;;;;;8.37;5.60;;;2.80;99.90;;;;;;4971310;28;20202;-56
2023/11/12 05:12:22;;;;;;;4.90;4.20;;;2.80;99.90;;;;;;4966062;28;20655;-56
2023/11/12 05:14:49;;;;;;;4.57;3.27;;;2.80;99.90;;;;;;4965759;28;20654;-56
2023/11/12 05:17:17;;;;;;;3.33;2.97;;;3.00;99.90;;;;;;4966343;28;20211;-56
2023/11/12 05:19:44;;;;;;;2.33;2.13;;;2.90;99.90;;;;;;4966900;28;20233;-56
2023/11/12 05:22:11;;;;;;;2.20;1.50;;;2.90;99.90;;;;;;4966392;28;20670;-56
2023/11/12 05:24:38;;;;;;;1.80;1.50;;;2.90;99.90;;;;;;4966539;28;20316;-57
2023/11/12 05:27:05;;;;;;;1.30;1.20;;;2.90;99.90;;;;;;4965585;28;20231;-56
2023/11/12 05:29:33;;;;;;;6.33;1.40;;;2.90;99.90;;;;;;4966660;28;20258;-56
2023/11/12 05:32:00;;;;;;;0.87;0.87;;;2.80;99.90;;;;;;4965613;28;20213;-56
2023/11/12 05:34:28;;;;;;;1.47;1.33;;;2.90;99.90;;;;;;4966386;28;20258;-56
2023/11/12 05:36:58;;;;;;;1.40;1.30;;;2.90;99.90;;;;;;4967111;28;20231;-56
2023/11/12 05:39:25;;;;;;;2.63;2.43;;;2.90;99.90;;;;;;4967463;28;20238;-56
2023/11/12 05:41:52;;;;;;;1.10;1.00;;;2.90;99.90;;;;;;4973475;28;20285;-56
2023/11/12 05:44:19;;;;;;;3.23;1.00;;;2.90;99.90;;;;;;4976997;28;20223;-57
2023/11/12 05:46:46;;;;;;;1.20;1.17;;;2.90;99.90;;;;;;4977091;28;20272;-57
2023/11/12 05:49:13;;;;;;;1.03;1.03;;;2.90;99.90;;;;;;4967676;28;20242;-56
2023/11/12 05:51:42;;;;;;;1.63;1.03;;;3.00;99.90;;;;;;4974150;28;20241;-56
2023/11/12 05:54:09;;;;;;;1.20;1.13;;;3.00;99.90;;;;;;4972110;28;20222;-56
2023/11/12 05:56:36;;;;;;;1.47;1.27;;;3.00;99.90;;;;;;4966578;28;20650;-56
2023/11/12 05:59:02;;;;;;;0.97;0.97;;;3.10;99.90;;;;;;4966250;28;20288;-56
2023/11/12 06:01:32;;;;;;;2.47;1.70;;;3.10;99.90;;;;;;4965524;28;20205;-56
2023/11/12 06:04:00;;;;;;;3.17;2.43;;;3.10;99.90;;;;;;4965517;28;20278;-56
2023/11/12 06:06:30;;;;;;;2.97;2.33;;;3.20;99.90;;;;;;4965195;28;20350;-56
2023/11/12 06:08:58;;;;;;;2.97;2.77;;;3.20;99.90;;;;;;4965867;28;20848;-56
2023/11/12 06:11:29;;;;;;;0.57;0.57;;;2.90;99.90;;;;;;4968559;28;20372;-56
2023/11/12 06:13:56;;;;;;;0.80;0.80;;;3.40;99.90;;;;;;4969707;28;20360;-56
2023/11/12 06:16:23;;;;;;;0.57;0.57;;;3.40;99.90;;;;;;4973908;28;20314;-56
2023/11/12 06:18:50;;;;;;;0.70;0.70;;;3.50;99.90;;;;;;4973343;28;20235;-56
2023/11/12 06:21:17;;;;;;;0.50;0.50;;;3.40;99.90;;;;;;4965779;28;20846;-56
2023/11/12 06:23:45;;;;;;;0.60;0.60;;;3.40;99.90;;;;;;4965783;28;20254;-56
2023/11/12 06:26:14;;;;;;;0.77;0.60;;;3.50;99.90;;;;;;4965490;28;20214;-56
2023/11/12 06:28:40;;;;;;;1.57;1.47;;;3.50;99.90;;;;;;4965842;28;20256;-56
2023/11/12 06:31:07;;;;;;;0.70;0.70;;;3.50;99.90;;;;;;4965295;28;20238;-56
2023/11/12 06:33:34;;;;;;;0.57;0.50;;;3.50;99.90;;;;;;4965138;28;20254;-56
2023/11/12 06:36:01;;;;;;;0.67;0.50;;;3.50;99.90;;;;;;4964810;28;20262;-56
2023/11/12 06:38:28;;;;;;;2.00;0.30;;;3.50;99.90;;;;;;4966798;28;20579;-57
2023/11/12 06:40:55;;;;;;;0.27;0.20;;;3.50;99.90;;;;;;4970966;28;20235;-56
2023/11/12 06:43:23;;;;;;;2.57;0.20;;;3.50;99.90;;;;;;4968280;28;20219;-56
2023/11/12 06:45:50;;;;;;;1.57;0.57;;;3.60;99.90;;;;;;4969091;28;20206;-56
2023/11/12 06:48:18;;;;;;;0.50;0.50;;;3.60;99.90;;;;;;4971351;28;20254;-56
2023/11/12 06:50:45;;;;;;;0.77;0.77;;;3.70;99.90;;;;;;4972933;28;20214;-56
2023/11/12 06:53:12;;;;;;;1.00;1.00;;;3.70;99.90;;;;;;4968381;28;20305;-56
2023/11/12 06:55:39;;;;;;;2.00;1.90;;;3.70;99.90;;;;;;4967737;28;20242;-56
2023/11/12 06:58:06;;;;;;;1.87;1.77;;;3.70;99.90;;;;;;4972776;28;20816;-56
2023/11/12 07:00:34;;;;;;;1.50;1.40;;;3.70;99.90;;;;;;4971069;28;20313;-56
2023/11/12 07:03:01;;;;;;;2.00;1.90;;;3.70;99.90;;;;;;4964629;28;20306;-56
2023/11/12 07:05:30;;;;;;;3.63;2.10;;;3.70;99.90;;;;;;4964258;28;20238;-56
2023/11/12 07:07:57;;;;;;;3.20;2.80;;;3.70;99.90;;;;;;4963771;28;20250;-56
2023/11/12 07:10:24;;;;;;;3.60;3.30;;;3.60;99.90;;;;;;4963672;28;20217;-56
2023/11/12 07:12:51;;;;;;;3.80;3.60;;;3.70;99.90;;;;;;4964536;28;20253;-55
2023/11/12 07:15:18;;;;;;;3.93;3.63;;;3.80;99.90;;;;;;4971454;28;20202;-55
2023/11/12 07:17:49;;;;;;;3.50;3.20;;;3.90;99.90;;;;;;4964791;28;20277;-55
2023/11/12 07:20:16;;;;;;;4.97;4.10;;;3.80;99.90;;;;;;4964902;28;20206;-55
2023/11/12 07:22:45;;;;;;;4.63;4.10;;;3.90;99.90;;;;;;4963948;28;20258;-55
2023/11/12 07:25:12;;;;;;;3.20;2.90;;;3.90;99.90;;;;;;4963810;28;20677;-57
2023/11/12 07:27:40;;;;;;;3.97;3.50;;;3.90;99.90;;;;;;4963648;28;20282;-55
2023/11/12 07:30:10;;;;;;;3.07;2.77;;;4.00;99.90;;;;;;4964320;28;20757;-55
2023/11/12 07:32:36;;;;;;;5.30;3.53;;;4.00;99.90;;;;;;4963558;28;20215;-55
2023/11/12 07:35:08;;;;;;;13.20;9.33;;;4.10;99.90;;;;;;4963331;28;20281;-55
2023/11/12 07:37:35;;;;;;;8.23;5.93;;;4.10;99.90;;;;;;4964654;28;20219;-55
2023/11/12 07:40:04;;;;;;;8.07;5.67;;;4.10;99.90;;;;;;4963788;28;20202;-55
2023/11/12 07:42:31;;;;;;;5.90;4.33;;;4.10;99.90;;;;;;4967941;28;20220;-56
2023/11/12 07:44:58;;;;;;;5.00;4.50;;;4.20;99.90;;;;;;4972055;28;20266;-55
2023/11/12 07:47:25;;;;;;;7.57;5.03;;;4.20;99.90;;;;;;4964077;28;20210;-55
2023/11/12 07:49:52;;;;;;;11.07;4.30;;;4.20;99.90;;;;;;4963329;28;20230;-55
2023/11/12 07:52:20;;;;;;;5.67;3.80;;;4.20;99.90;;;;;;4966939;28;20552;-55
2023/11/12 07:54:47;;;;;;;6.93;6.23;;;4.20;99.90;;;;;;4963836;28;20254;-55
2023/11/12 07:57:14;;;;;;;4.70;3.70;;;4.30;99.90;;;;;;4964809;28;20753;-55
2023/11/12 07:59:41;;;;;;;3.17;2.87;;;4.10;99.90;;;;;;4964671;28;20302;-55
2023/11/12 08:02:09;;;;;;;3.40;3.10;;;4.40;99.90;;;;;;4963900;28;20202;-56
2023/11/12 08:04:36;;;;;;;4.50;4.10;;;3.80;99.90;;;;;;4963300;28;20235;-55
2023/11/12 08:07:03;;;;;;;5.50;4.40;;;4.30;99.90;;;;;;4963296;28;20225;-55
2023/11/12 08:09:31;;;;;;;4.83;4.07;;;4.30;99.90;;;;;;4964193;28;20337;-55
2023/11/12 08:11:58;;;;;;;3.73;3.33;;;4.30;99.90;;;;;;4963074;28;20602;-56
2023/11/12 08:14:26;;;;;;;2.50;2.30;;;4.40;99.90;;;;;;4964000;28;20249;-56
2023/11/12 08:16:53;;;;;;;2.03;1.93;;;4.40;99.90;;;;;;4962930;28;20211;-55
2023/11/12 08:19:19;;;;;;;3.37;3.07;;;4.40;99.90;;;;;;4967610;28;20214;-55
2023/11/12 08:21:46;;;;;;;4.03;3.73;;;4.50;99.90;;;;;;4963959;28;20266;-56
2023/11/12 08:24:13;;;;;;;5.27;4.83;;;4.50;99.90;;;;;;4962305;28;22358;-55
2023/11/12 08:26:42;;;;;;;5.17;4.70;;;4.50;99.90;;;;;;4968237;28;20614;-55
2023/11/12 08:29:10;;;;;;;5.50;4.40;;;4.50;99.90;;;;;;4964224;28;20222;-55
2023/11/12 08:31:37;;;;;;;3.17;2.93;;;4.70;99.90;;;;;;4966211;28;20230;-55
2023/11/12 08:34:04;;;;;;;3.73;3.43;;;4.50;99.90;;;;;;4964326;28;20395;-55
2023/11/12 08:36:33;;;;;;;3.47;3.17;;;4.50;99.90;;;;;;4962484;28;20205;-52
2023/11/12 08:39:03;;;;;;;3.87;3.47;;;4.50;99.90;;;;;;4962598;28;20562;-51
2023/11/12 08:41:34;;;;;;;3.10;3.00;;;4.60;99.90;;;;;;4966742;28;20606;-52
2023/11/12 08:44:02;;;;;;;4.47;4.07;;;4.70;99.90;;;;;;4971291;28;20221;-54
2023/11/12 08:46:33;;;;;;;4.37;3.97;;;4.70;99.90;;;;;;4970678;28;20288;-52
2023/11/12 08:49:02;;;;;;;3.40;3.10;;;4.60;99.90;;;;;;4971504;28;20222;-52
2023/11/12 08:51:33;;;;;;;3.60;3.40;;;4.60;99.90;;;;;;4971432;28;20206;-52
2023/11/12 08:54:00;;;;;;;4.60;3.23;;;4.70;99.90;;;;;;4970964;28;20230;-52
2023/11/12 08:56:31;;;;;;;2.23;2.07;;;4.80;99.90;;;;;;4971164;28;20205;-52
2023/11/12 08:59:00;;;;;;;1.90;1.80;;;4.80;99.90;;;;;;4971782;28;20204;-52
2023/11/12 09:01:35;;;;;;;2.67;2.47;;;4.80;99.90;;;;;;4970290;28;20242;-52
2023/11/12 09:04:02;;;;;;;2.40;2.10;;;4.90;99.90;;;;;;4970648;28;20238;-53
2023/11/12 09:06:31;;;;;;;1.90;1.83;;;4.90;99.90;;;;;;4971927;28;20217;-52
2023/11/12 09:08:58;;;;;;;1.73;1.63;;;4.90;99.90;;;;;;4971203;28;20275;-52
2023/11/12 09:11:25;;;;;;;2.13;1.30;;;4.90;99.90;;;;;;4970744;28;20259;-52
2023/11/12 09:13:53;;;;;;;1.93;1.30;;;4.90;99.90;;;;;;4973023;28;20227;-52
2023/11/12 09:16:19;;;;;;;3.80;1.60;;;4.90;99.90;;;;;;4990420;28;20198;-52
2023/11/12 09:18:48;;;;;;;1.57;1.47;;;4.90;99.90;;;;;;4989771;28;20207;-53
2023/11/12 09:21:15;;;;;;;1.80;1.70;;;4.90;99.90;;;;;;4983775;28;20207;-52
2023/11/12 09:23:42;;;;;;;2.70;1.40;;;4.90;99.90;;;;;;4971731;28;20282;-52
2023/11/12 09:26:09;;;;;;;2.67;2.20;;;4.90;99.90;;;;;;4969254;28;20214;-52
2023/11/12 09:28:38;;;;;;;3.67;2.47;;;4.90;99.90;;;;;;4970590;28;20233;-53
2023/11/12 09:31:05;;;;;;;2.60;2.50;;;4.90;99.90;;;;;;4972007;28;20209;-54
2023/11/12 09:33:32;;;;;;;4.80;2.77;;;4.90;99.90;;;;;;4973455;28;20281;-54
2023/11/12 09:36:00;;;;;;;4.30;3.90;;;5.00;99.90;;;;;;4974060;28;20701;-55
2023/11/12 09:38:27;;;;;;;3.37;3.07;;;5.10;99.90;;;;;;4972972;28;20239;-54
2023/11/12 09:40:56;;;;;;;2.87;2.23;;;5.10;99.90;;;;;;4973708;28;20304;-54
2023/11/12 09:43:25;;;;;;;2.23;2.13;;;;;;;;;;4974559;28;20313;-52
2023/11/12 09:45:55;;;;;;;1.80;1.70;;;5.30;99.90;;;;;;4973410;28;20206;-52
2023/11/12 09:48:31;;;;;;;3.07;2.87;;;5.40;99.90;;;;;;4974766;28;20200;-52
2023/11/12 09:51:05;;;;;;;1.90;1.30;;;5.40;99.90;;;;;;4974919;28;20226;-52
2023/11/12 09:53:32;;;;;;;1.90;1.60;;;5.40;99.90;;;;;;4974626;28;20231;-52
2023/11/12 09:56:04;;;;;;;0.90;0.90;;;5.40;99.90;;;;;;4974421;28;20273;-52
2023/11/12 09:58:31;;;;;;;0.93;0.93;;;5.40;99.90;;;;;;4975649;28;20312;-52
2023/11/12 10:01:00;;;;;;;3.77;2.30;;;5.40;99.90;;;;;;4974405;28;20233;-52
2023/11/12 10:03:27;;;;;;;4.10;1.93;;;5.40;99.90;;;;;;4970910;28;20328;-52
2023/11/12 10:05:55;;;;;;;3.00;1.83;;;5.40;99.90;;;;;;4970231;28;20229;-54
2023/11/12 10:08:23;;;;;;;2.53;1.50;;;5.50;99.90;;;;;;4972806;28;20267;-52
2023/11/12 10:10:50;;;;;;;0.97;0.97;;;5.50;99.90;;;;;;4971408;28;20230;-52
2023/11/12 10:13:18;;;;;;;2.07;0.50;;;5.60;99.90;;;;;;4972007;28;20303;-52
2023/11/12 10:15:46;;;;;;;1.13;0.70;;;5.50;99.90;;;;;;4973066;28;20676;-52
2023/11/12 10:18:13;;;;;;;1.90;1.13;;;5.50;99.90;;;;;;4973381;28;20202;-52
2023/11/12 10:20:42;;;;;;;1.37;1.03;;;5.50;99.90;;;;;;4972954;28;20841;-52
2023/11/12 10:23:20;;;;;;;1.90;1.20;;;5.40;99.90;;;;;;4973603;28;20222;-52
2023/11/12 10:25:49;;;;;;;1.53;1.03;;;5.40;99.90;;;;;;4973014;28;20762;-52
2023/11/12 10:28:17;;;;;;;1.67;1.10;;;5.50;99.90;;;;;;4973262;28;20203;-51
2023/11/12 10:30:46;;;;;;;1.40;1.33;;;5.50;99.90;;;;;;4973303;28;20383;-52
2023/11/12 10:33:23;;;;;;;2.43;1.30;;;5.50;99.90;;;;;;4966041;28;20226;-52
2023/11/12 10:35:51;;;;;;;2.80;2.10;;;5.60;99.90;;;;;;4966877;28;20230;-52
2023/11/12 10:38:18;;;;;;;3.60;2.23;;;5.50;99.90;;;;;;4970900;28;20257;-52
2023/11/12 10:41:01;;;;;;;1.57;1.40;;;5.50;99.90;;;;;;4968699;28;20206;-52
2023/11/12 10:43:29;;;;;;;3.10;2.33;;;5.50;99.90;;;;;;4972894;28;20230;-52
2023/11/12 10:45:59;;;;;;;2.00;1.90;;;5.60;99.90;;;;;;4972755;28;20273;-52
2023/11/12 10:48:33;;;;;;;1.93;1.50;;;5.50;99.90;;;;;;4972749;28;20216;-52
2023/11/12 10:51:01;;;;;;;5.53;2.40;;;5.50;99.90;;;;;;4972490;28;20232;-52
2023/11/12 10:53:29;;;;;;;5.53;2.73;;;5.50;99.90;;;;;;4972018;28;20320;-52
2023/11/12 10:55:57;;;;;;;5.20;1.87;;;5.50;99.90;;;;;;4972776;28;20297;-53
2023/11/12 10:58:26;;;;;;;1.40;1.30;;;5.50;99.90;;;;;;4972870;28;20235;-53
2023/11/12 11:00:57;;;;;;;2.53;2.13;;;5.60;99.90;;;;;;4980241;28;20202;-52
2023/11/12 11:03:27;;;;;;;4.80;2.67;;;5.50;99.90;;;;;;4972345;28;20242;-52
2023/11/12 11:05:55;;;;;;;3.63;2.00;;;5.40;99.90;;;;;;4972348;28;20204;-52
2023/11/12 11:08:26;;;;;;;4.20;1.93;;;5.50;99.90;;;;;;4972654;28;20279;-53
2023/11/12 11:10:54;;;;;;;3.63;1.93;;;5.40;99.90;;;;;;4971917;28;20228;-52
2023/11/12 11:13:22;;;;;;;4.10;2.63;;;5.40;99.90;;;;;;4972005;28;20661;-52
2023/11/12 11:15:52;;;;;;;6.20;2.37;;;5.40;99.90;;;;;;4972063;28;20242;-52
2023/11/12 11:18:50;;;;;;;3.83;1.60;;;5.50;99.90;;;;;;4965727;28;20245;-52
2023/11/12 11:21:17;;;;;;;2.00;1.30;;;5.50;99.90;;;;;;4968438;28;20204;-53
2023/11/12 11:26:34;;;;;;;2.03;0.90;;;5.40;99.90;;;;;;4967540;28;20231;-59
2023/11/12 11:29:14;;;;;;;1.20;1.10;;;5.50;99.90;;;;;;4972280;28;20208;-59
2023/11/12 11:32:13;;;;;;;0.93;0.73;;;5.40;99.90;;;;;;4968727;28;20238;-59
2023/11/12 11:34:42;;;;;;;0.80;0.80;;;5.40;99.90;;;;;;4972953;28;20218;-59
2023/11/12 11:37:09;;;;;;;1.87;1.10;;;5.40;99.90;;;;;;4961043;28;20666;-59
2023/11/12 11:39:37;;;;;;;3.17;1.97;;;5.30;99.90;;;;;;4962750;28;20252;-59
2023/11/12 11:42:14;;;;;;;2.30;2.03;;;5.20;99.90;;;;;;4953627;28;20209;-59
2023/11/12 11:44:43;;;;;;;2.23;1.50;;;5.20;99.90;;;;;;4954547;28;20230;-58
2023/11/12 11:47:15;;;;;;;2.90;0.90;;;5.20;99.90;;;;;;4939081;28;20207;-59
2023/11/12 11:49:44;;;;;;;2.50;1.23;;;5.20;99.90;;;;;;4950045;28;20231;-59
2023/11/12 11:52:17;;;;;;;1.73;0.87;;;5.20;99.90;;;;;;4944351;28;20206;-59
2023/11/12 11:54:45;;;;;;;1.03;1.03;;;5.20;99.90;;;;;;4942785;28;20224;-59
2023/11/12 11:57:14;;;;;;;3.17;1.13;;;5.20;99.90;;;;;;4947747;28;20264;-58
2023/11/12 11:59:43;;;;;;;1.43;0.63;;;5.20;99.90;;;;;;4951965;28;20235;-59
2023/11/12 12:02:16;;;;;;;1.23;0.80;;;5.30;99.90;;;;;;4947264;28;20203;-59
2023/11/12 12:04:47;;;;;;;1.27;1.17;;;5.40;99.90;;;;;;4952309;28;20223;-59
2023/11/12 12:07:24;;;;;;;2.83;1.60;;;5.30;99.90;;;;;;4946613;28;20298;-59
2023/11/12 12:09:53;;;;;;;2.23;1.33;;;5.40;99.90;;;;;;4953097;28;20256;-59
2023/11/12 12:12:20;;;;;;;1.93;1.47;;;5.20;99.90;;;;;;4952364;28;20203;-59
2023/11/12 12:14:47;;;;;;;1.23;1.13;;;5.30;99.90;;;;;;4952095;28;20226;-59
2023/11/12 12:17:16;;;;;;;1.40;1.27;;;5.20;99.90;;;;;;4951553;28;20204;-59
2023/11/12 12:19:43;;;;;;;2.73;2.27;;;5.30;99.90;;;;;;4953029;28;20743;-59
2023/11/12 12:22:10;;;;;;;2.20;2.00;;;5.30;99.90;;;;;;4945082;28;20266;-59
2023/11/12 12:24:38;;;;;;;1.17;1.17;;;5.30;99.90;;;;;;4952721;28;20794;-59
2023/11/12 12:27:09;;;;;;;1.83;1.73;;;5.30;99.90;;;;;;4953159;28;20235;-59
2023/11/12 12:29:38;;;;;;;1.80;1.43;;;5.30;99.90;;;;;;4953391;28;20238;-59
2023/11/12 12:32:18;;;;;;;1.40;1.30;;;5.30;99.90;;;;;;4952955;28;20214;-59
2023/11/12 12:34:49;;;;;;;1.13;0.90;;;5.30;99.90;;;;;;4948307;28;20228;-59
2023/11/12 12:37:21;;;;;;;1.10;1.10;;;5.30;99.90;;;;;;4953216;28;20298;-59
2023/11/12 12:39:52;;;;;;;1.10;1.00;;;5.20;99.90;;;;;;4950744;28;20206;-59
2023/11/12 12:42:21;;;;;;;1.40;1.27;;;5.10;99.90;;;;;;4953253;28;20203;-59
2023/11/12 12:44:49;;;;;;;1.10;0.87;;;5.20;99.90;;;;;;4951027;28;20223;-59
2023/11/12 12:47:35;;;;;;;3.10;1.63;;;5.20;99.90;;;;;;4947297;28;20258;-59
2023/11/12 12:50:16;;;;;;;1.33;1.03;;;5.10;99.90;;;;;;4950601;28;20255;-59
2023/11/12 12:52:45;;;;;;;1.53;1.20;;;5.10;99.90;;;;;;4951861;28;20211;-59
2023/11/12 12:55:15;;;;;;;0.80;0.80;;;5.20;99.90;;;;;;4952578;28;20819;-59
2023/11/12 12:57:42;;;;;;;1.30;1.20;;;5.30;99.90;;;;;;4951918;28;20245;-59
2023/11/12 13:00:11;;;;;;;1.37;1.13;;;5.20;99.90;;;;;;4951281;28;20211;-59
2023/11/12 13:02:41;;;;;;;1.00;0.90;;;5.30;99.90;;;;;;4953123;28;20243;-59
2023/11/12 13:05:13;;;;;;;2.60;1.47;;;5.30;99.90;;;;;;4951091;28;20488;-59
2023/11/12 13:07:41;;;;;;;1.10;0.90;;;5.30;99.90;;;;;;4957012;28;20211;-59